createdAt,value
2022-08-26T00:08:21.607Z,20.53
2022-08-26T00:18:22.952Z,20.40
2022-08-26T00:28:24.316Z,20.22
2022-08-26T00:38:26.109Z,20.27
2022-08-26T00:48:31.856Z,20.25
2022-08-26T00:58:34.187Z,20.18
2022-08-26T01:08:35.520Z,20.09
2022-08-26T01:18:36.900Z,20.02
2022-08-26T01:28:38.462Z,20.04
2022-08-26T01:38:42.125Z,20.07
2022-08-26T01:48:43.653Z,20.10
2022-08-26T01:58:45.311Z,20.00
2022-08-26T02:08:46.653Z,19.90
2022-08-26T02:18:48.040Z,19.68
2022-08-26T02:28:49.466Z,19.43
2022-08-26T02:38:50.797Z,19.40
2022-08-26T02:48:53.472Z,19.23
2022-08-26T02:58:55.218Z,19.26
2022-08-26T03:08:56.582Z,19.06
2022-08-26T03:18:58.043Z,18.99
2022-08-26T03:29:19.182Z,18.97
2022-08-26T03:39:20.583Z,18.60
2022-08-26T03:49:22.843Z,18.58
2022-08-26T03:59:24.253Z,18.50
2022-08-26T04:09:26.184Z,18.55
2022-08-26T04:19:28.026Z,18.58
2022-08-26T04:29:29.421Z,18.62
2022-08-26T04:39:30.795Z,18.71
2022-08-26T04:49:35.240Z,18.76
2022-08-26T04:59:39.340Z,18.70
2022-08-26T05:09:40.943Z,18.52
2022-08-26T05:19:43.010Z,18.55
2022-08-26T05:29:44.475Z,18.89
2022-08-26T05:39:51.218Z,18.96
2022-08-26T05:49:53.056Z,19.44
2022-08-26T05:59:54.430Z,19.74
2022-08-26T06:10:09.971Z,20.30
2022-08-26T06:20:17.218Z,20.62
2022-08-26T06:30:18.697Z,20.73
2022-08-26T06:40:22.673Z,20.81
2022-08-26T06:50:24.408Z,20.84
2022-08-26T07:00:26.366Z,21.16
2022-08-26T07:10:27.797Z,21.66
2022-08-26T07:20:29.075Z,22.18
2022-08-26T07:30:30.430Z,22.98
2022-08-26T07:40:32.058Z,23.04
2022-08-26T07:50:49.375Z,23.57
2022-08-26T08:00:51.783Z,23.98
2022-08-26T08:10:55.192Z,24.46
2022-08-26T08:21:10.800Z,24.66
2022-08-26T08:31:21.600Z,24.81
2022-08-26T08:41:29.888Z,24.61
2022-08-26T08:51:31.575Z,24.56
2022-08-26T09:01:35.217Z,24.81
2022-08-26T09:11:36.783Z,25.36
2022-08-26T09:21:38.358Z,25.91
2022-08-26T09:31:41.404Z,26.14
2022-08-26T09:41:42.735Z,26.65
2022-08-26T09:51:44.595Z,27.14
2022-08-26T10:01:53.161Z,27.32
2022-08-26T10:11:54.686Z,27.07
2022-08-26T10:21:56.067Z,27.85
2022-08-26T10:31:58.797Z,27.56
2022-08-26T10:42:05.189Z,28.40
2022-08-26T10:52:12.391Z,28.68
2022-08-26T11:02:21.521Z,28.57
2022-08-26T11:12:26.048Z,28.30
2022-08-26T11:22:27.327Z,28.59
2022-08-26T11:32:28.680Z,29.36
2022-08-26T11:42:30.037Z,29.39
2022-08-26T11:52:31.370Z,29.76
2022-08-26T12:02:33.868Z,30.06
2022-08-26T12:12:37.354Z,30.01
2022-08-26T12:22:38.933Z,30.46
2022-08-26T12:32:57.311Z,30.60
2022-08-26T12:43:00.429Z,30.31
2022-08-26T12:53:01.739Z,30.40
2022-08-26T13:03:06.399Z,30.62
2022-08-26T13:13:07.975Z,30.05
2022-08-26T13:23:09.584Z,29.79
2022-08-26T13:33:12.267Z,29.80
2022-08-26T13:43:15.893Z,29.51
2022-08-26T13:53:17.375Z,29.70
2022-08-26T14:03:18.706Z,28.78
2022-08-26T14:13:20.201Z,28.82
2022-08-26T14:23:22.725Z,28.95
2022-08-26T14:33:24.367Z,29.14
2022-08-26T14:43:26.209Z,28.67
2022-08-26T14:53:46.203Z,28.00
2022-08-26T15:03:47.554Z,27.80
2022-08-26T15:13:48.881Z,27.92
2022-08-26T15:23:50.221Z,27.65
2022-08-26T15:33:52.642Z,27.42
2022-08-26T15:43:53.987Z,27.38
2022-08-26T15:53:58.604Z,27.19
2022-08-26T16:03:59.967Z,27.07
2022-08-26T16:14:01.319Z,26.96
2022-08-26T16:24:03.370Z,26.82
2022-08-26T16:34:04.765Z,26.69
2022-08-26T16:44:06.132Z,26.45
2022-08-26T16:54:07.771Z,26.06
2022-08-26T17:04:09.158Z,26.09
2022-08-26T17:14:10.473Z,25.94
2022-08-26T17:24:11.773Z,24.86
2022-08-26T17:34:13.149Z,24.47
2022-08-26T17:44:14.490Z,24.55
2022-08-26T17:54:15.804Z,24.43
2022-08-26T18:04:17.617Z,24.22
2022-08-26T18:14:19.135Z,24.12
2022-08-26T18:24:20.459Z,24.04
2022-08-26T18:34:21.780Z,23.92
2022-08-26T18:44:26.185Z,23.66
2022-08-26T18:54:27.503Z,23.60
2022-08-26T19:04:28.812Z,23.13
2022-08-26T19:14:30.178Z,22.88
2022-08-26T19:24:31.567Z,22.69
2022-08-26T19:34:32.916Z,22.66
2022-08-26T19:44:53.019Z,22.49
2022-08-26T19:54:54.280Z,22.39
2022-08-26T20:04:55.686Z,22.45
2022-08-26T20:14:56.955Z,22.45
2022-08-26T20:24:58.324Z,22.54
2022-08-26T20:35:00.896Z,22.65
2022-08-26T20:45:02.667Z,22.71
2022-08-26T20:55:03.980Z,22.75
2022-08-26T21:05:05.456Z,22.78
2022-08-26T21:15:07.354Z,22.71
2022-08-26T21:25:08.688Z,21.44
2022-08-26T21:35:10.015Z,21.12
2022-08-26T21:45:11.358Z,21.34
2022-08-26T21:55:12.720Z,21.68
2022-08-26T22:05:14.067Z,21.67
2022-08-26T22:15:15.840Z,21.46
2022-08-26T22:25:17.190Z,19.51
2022-08-26T22:35:28.716Z,18.82
2022-08-26T22:45:32.147Z,19.04
2022-08-26T22:55:33.509Z,19.26
2022-08-26T23:05:34.888Z,19.30
2022-08-26T23:15:36.298Z,19.42
2022-08-26T23:25:37.657Z,19.54
2022-08-26T23:35:38.979Z,19.56
2022-08-26T23:45:42.916Z,19.67
2022-08-26T23:55:44.304Z,19.61
